Terminal Aerodrome Forecast
Issued by NWS

Home | Current Version | Previous Version | Text Only | Print | Product List | Glossary On
Versions: 1 2 3 4 5 6 7 8 9 10 11 12 13 14 15 16
000
FTUS44 KTSA 312300
TAFBVO
TAF
KBVO 312325Z 0100/0124 VRB03KT P6SM FEW035 BKN080
     FM010300 00000KT P6SM SCT250
     FM010900 00000KT 2SM BR SCT005
     FM011500 00000KT P6SM BKN025
     FM011800 09005KT P6SM SCT250=

USA.gov is the U.S. government's official web portal to all federal, state and local government web resources and services.